Terminal Aerodrome Forecast
Issued by NWS Columbia, SC

Home | Current Version | Previous Version | Text Only | Print | Product List | Glossary On
Versions: 1 2 3 4 5 6 7 8 9 10 11 12 13 14 15 16 17 18 19 20 21 22 23 24 25 26 27 28 29 30 31 32 33 34 35 36 37 38 39 40 41 42 43 44 45
000
FTUS42 KCAE 071323 AAB
TAFCAE
TAF AMD
KCAE 071323Z 0713/0812 00000KT 3SM BR OVC004
     FM071500 VRB04KT 6SM BR OVC008
     FM071700 VRB04KT P6SM OVC025
     FM080800 00000KT 4SM BR OVC015=

USA.gov is the U.S. government's official web portal to all federal, state and local government web resources and services.